Time;durP1;ratioP1;P1;durP2;ratioP2;P2;SDS_P1;SDS_P2;PMS_P1;PMS_P2;Temp;Humidity;BMP_temperature;BMP_pressure;BME280_temperature;BME280_humidity;BME280_pressure;Samples;Min_cycle;Max_cycle;Signal;HPM_P1;HPM_P2
2020/12/28 00:00:17;;;;;;;;;;;;;;;;;;5008761;28;19929;-67
2020/12/28 00:02:44;;;;;;;;;;;;;;;;;;5007397;28;19976;-66
2020/12/28 00:05:10;;;;;;;;;;;;;;;;;;5008782;28;20049;-67
2020/12/28 00:07:37;;;;;;;;;;;;;;;;;;5009021;28;19925;-68
2020/12/28 00:10:03;;;;;;;;;;;;;;;;;;5016002;28;20012;-69
2020/12/28 00:12:30;;;;;;;;;;;;;;;;;;5012854;28;20024;-67
2020/12/28 00:14:56;;;;;;;;;;;;;;;;;;5014408;28;20024;-69
2020/12/28 00:17:23;;;;;;;;;;;;;;;;;;5017719;28;19925;-68
2020/12/28 00:19:49;;;;;;;;;;;;;;;;;;5019749;28;19925;-70
2020/12/28 00:22:16;;;;;;;;;;;;;;;;;;5014730;28;19953;-67
2020/12/28 00:24:43;;;;;;;;;;;;;;;;;;5013372;28;20379;-67
2020/12/28 00:27:09;;;;;;;;;;;;;;;;;;5012380;28;19932;-66
2020/12/28 00:29:36;;;;;;;;;;;;;;;;;;5006812;28;20450;-68
2020/12/28 00:32:02;;;;;;;;;;;;;;;;;;5003951;28;20120;-68
2020/12/28 00:34:29;;;;;;;;;;;;;;;;;;5009657;28;19933;-69
2020/12/28 00:36:55;;;;;;;;;;;;;;;;;;5010775;28;20013;-68
2020/12/28 00:39:22;;;;;;;;;;;;;;;;;;5009789;28;19925;-67
2020/12/28 00:41:48;;;;;;;;;;;;;;;;;;5009249;28;19925;-68
2020/12/28 00:44:15;;;;;;;;;;;;;;;;;;5005709;28;19933;-67
2020/12/28 00:46:41;;;;;;;;;;;;;;;;;;5003274;28;19964;-69
2020/12/28 00:49:08;;;;;;;;;;;;;;;;;;5003571;28;19932;-69
2020/12/28 00:51:34;;;;;;;;;;;;;;;;;;5008631;28;19925;-68
2020/12/28 00:54:01;;;;;;;;;;;;;;;;;;5010276;28;19926;-68
2020/12/28 00:56:27;;;;;;;;;;;;;;;;;;5009137;28;19929;-68
2020/12/28 00:58:54;;;;;;;;;;;;;;;;;;5007367;28;20007;-67
2020/12/28 01:01:20;;;;;;;;;;;;;;;;;;5011731;28;19932;-67
2020/12/28 01:03:47;;;;;;;;;;;;;;;;;;5008680;28;20020;-67
2020/12/28 01:06:13;;;;;;;;;;;;;;;;;;5012928;28;19932;-68
2020/12/28 01:08:40;;;;;;;;;;;;;;;;;;5013159;28;19925;-68
2020/12/28 01:11:06;;;;;;;;;;;;;;;;;;5011115;28;19925;-68
2020/12/28 01:13:32;;;;;;;;;;;;;;;;;;5008853;28;19925;-68
2020/12/28 01:15:59;;;;;;;;;;;;;;;;;;5012546;28;20318;-67
2020/12/28 01:18:25;;;;;;;;;;;;;;;;;;5013411;28;19935;-66
2020/12/28 01:20:52;;;;;;;;;;;;;;;;;;5014698;28;19948;-68
2020/12/28 01:23:18;;;;;;;;;;;;;;;;;;5009827;28;19934;-66
2020/12/28 01:25:45;;;;;;;;;;;;;;;;;;5014323;28;19988;-69
2020/12/28 01:28:11;;;;;;;;;;;;;;;;;;5011152;28;20415;-69
2020/12/28 01:30:38;;;;;;;;;;;;;;;;;;5010335;28;19936;-68
2020/12/28 01:33:04;;;;;;;;;;;;;;;;;;5009108;28;19926;-67
2020/12/28 01:35:31;;;;;;;;;;;;;;;;;;5008443;28;20465;-67
2020/12/28 01:37:58;;;;;;;;;;;;;;;;;;5008678;28;20354;-67
2020/12/28 01:40:24;;;;;;;;;;;;;;;;;;5009873;28;19925;-68
2020/12/28 01:42:50;;;;;;;;;;;;;;;;;;5006525;28;20016;-68
2020/12/28 01:45:17;;;;;;;;;;;;;;;;;;5011331;28;19933;-68
2020/12/28 01:47:44;;;;;;;;;;;;;;;;;;5010818;28;19925;-67
2020/12/28 01:50:10;;;;;;;;;;;;;;;;;;5008118;28;19972;-69
2020/12/28 01:52:37;;;;;;;;;;;;;;;;;;5013042;28;19935;-69
2020/12/28 01:55:03;;;;;;;;;;;;;;;;;;5012244;28;19925;-68
2020/12/28 01:57:29;;;;;;;;;;;;;;;;;;5012120;28;19925;-68
2020/12/28 01:59:56;;;;;;;;;;;;;;;;;;5010644;28;19929;-68
2020/12/28 02:02:22;;;;;;;;;;;;;;;;;;5007418;28;20327;-68
2020/12/28 02:04:49;;;;;;;;;;;;;;;;;;5010075;28;19929;-68
2020/12/28 02:07:15;;;;;;;;;;;;;;;;;;5006062;28;20327;-68
2020/12/28 02:09:42;;;;;;;;;;;;;;;;;;5011765;28;19979;-67
2020/12/28 02:12:08;;;;;;;;;;;;;;;;;;5016398;28;20447;-68
2020/12/28 02:14:35;;;;;;;;;;;;;;;;;;5017894;28;19937;-68
2020/12/28 02:17:01;;;;;;;;;;;;;;;;;;5016326;28;20012;-68
2020/12/28 02:19:28;;;;;;;;;;;;;;;;;;5016521;28;20382;-68
2020/12/28 02:21:54;;;;;;;;;;;;;;;;;;5014340;28;19926;-68
2020/12/28 02:24:21;;;;;;;;;;;;;;;;;;5012456;28;19956;-67
2020/12/28 02:26:47;;;;;;;;;;;;;;;;;;5006928;28;20323;-67
2020/12/28 02:29:14;;;;;;;;;;;;;;;;;;5014396;28;19933;-67
2020/12/28 02:31:40;;;;;;;;;;;;;;;;;;5018187;28;20360;-67
2020/12/28 02:34:07;;;;;;;;;;;;;;;;;;5018108;28;19933;-68
2020/12/28 02:36:33;;;;;;;;;;;;;;;;;;5012189;28;19933;-66
2020/12/28 02:39:00;;;;;;;;;;;;;;;;;;5010677;28;19926;-68
2020/12/28 02:41:26;;;;;;;;;;;;;;;;;;5016162;28;20454;-66
2020/12/28 02:43:53;;;;;;;;;;;;;;;;;;5018072;28;19933;-69
2020/12/28 02:46:19;;;;;;;;;;;;;;;;;;5017563;28;19925;-68
2020/12/28 02:48:46;;;;;;;;;;;;;;;;;;5010413;28;19957;-67
2020/12/28 02:51:13;;;;;;;;;;;;;;;;;;5007311;28;19932;-67
2020/12/28 02:53:39;;;;;;;;;;;;;;;;;;5010987;28;19926;-67
2020/12/28 02:56:06;;;;;;;;;;;;;;;;;;5003888;28;20283;-67
2020/12/28 02:58:32;;;;;;;;;;;;;;;;;;5011040;28;20016;-67
2020/12/28 03:00:59;;;;;;;;;;;;;;;;;;5013212;28;19934;-68
2020/12/28 03:03:25;;;;;;;;;;;;;;;;;;5011956;28;20040;-67
2020/12/28 03:05:52;;;;;;;;;;;;;;;;;;5007624;28;19932;-67
2020/12/28 03:08:18;;;;;;;;;;;;;;;;;;5011116;28;20310;-68
2020/12/28 03:10:45;;;;;;;;;;;;;;;;;;5010702;28;19933;-67
2020/12/28 03:13:11;;;;;;;;;;;;;;;;;;5010547;28;20020;-67
2020/12/28 03:15:38;;;;;;;;;;;;;;;;;;5011318;28;19929;-67
2020/12/28 03:18:04;;;;;;;;;;;;;;;;;;5009770;28;20016;-68
2020/12/28 03:20:31;;;;;;;;;;;;;;;;;;5011168;28;20429;-68
2020/12/28 03:22:57;;;;;;;;;;;;;;;;;;5009176;28;19969;-68
2020/12/28 03:25:24;;;;;;;;;;;;;;;;;;5011467;28;19933;-68
2020/12/28 03:27:50;;;;;;;;;;;;;;;;;;5009680;28;19925;-66
2020/12/28 03:30:17;;;;;;;;;;;;;;;;;;5007609;28;19972;-67
2020/12/28 03:32:43;;;;;;;;;;;;;;;;;;5005045;28;19925;-67
2020/12/28 03:35:10;;;;;;;;;;;;;;;;;;5003363;28;19980;-67
2020/12/28 03:37:36;;;;;;;;;;;;;;;;;;5008916;28;19975;-68
2020/12/28 03:40:03;;;;;;;;;;;;;;;;;;5006519;28;19932;-67
2020/12/28 03:42:29;;;;;;;;;;;;;;;;;;5009771;28;19925;-67
2020/12/28 03:44:56;;;;;;;;;;;;;;;;;;5014631;28;19931;-66
2020/12/28 03:47:22;;;;;;;;;;;;;;;;;;5006630;28;19929;-67
2020/12/28 03:49:49;;;;;;;;;;;;;;;;;;5003255;28;19948;-68
2020/12/28 03:52:15;;;;;;;;;;;;;;;;;;5008706;28;19925;-67
2020/12/28 03:54:42;;;;;;;;;;;;;;;;;;5009175;28;20167;-68
2020/12/28 03:57:08;;;;;;;;;;;;;;;;;;5004835;28;19932;-68
2020/12/28 03:59:35;;;;;;;;;;;;;;;;;;5009362;28;19932;-67
2020/12/28 04:02:01;;;;;;;;;;;;;;;;;;5008269;28;19925;-68
2020/12/28 04:04:28;;;;;;;;;;;;;;;;;;5008208;28;20347;-68
2020/12/28 04:06:54;;;;;;;;;;;;;;;;;;5011460;28;20012;-69
2020/12/28 04:09:21;;;;;;;;;;;;;;;;;;5009246;28;19948;-68
2020/12/28 04:11:47;;;;;;;;;;;;;;;;;;5008312;28;19929;-67
2020/12/28 04:14:14;;;;;;;;;;;;;;;;;;5009590;28;20279;-68
2020/12/28 04:16:40;;;;;;;;;;;;;;;;;;5009902;28;19925;-67
2020/12/28 04:19:07;;;;;;;;;;;;;;;;;;5010600;28;19930;-69
2020/12/28 04:21:33;;;;;;;;;;;;;;;;;;5002511;28;19929;-67
2020/12/28 04:24:00;;;;;;;;;;;;;;;;;;5009316;28;19929;-67
2020/12/28 04:26:26;;;;;;;;;;;;;;;;;;5011743;28;19925;-68
2020/12/28 04:28:53;;;;;;;;;;;;;;;;;;5009899;28;19945;-68
2020/12/28 04:31:19;;;;;;;;;;;;;;;;;;5007181;28;19925;-67
2020/12/28 04:33:46;;;;;;;;;;;;;;;;;;5002134;28;20016;-68
2020/12/28 04:36:12;;;;;;;;;;;;;;;;;;5008951;28;19933;-68
2020/12/28 04:38:39;;;;;;;;;;;;;;;;;;5015489;28;19932;-68
2020/12/28 04:41:06;;;;;;;;;;;;;;;;;;5010789;28;19933;-69
2020/12/28 04:43:32;;;;;;;;;;;;;;;;;;5013060;28;19925;-68
2020/12/28 04:45:59;;;;;;;;;;;;;;;;;;5014141;28;20008;-66
2020/12/28 04:48:25;;;;;;;;;;;;;;;;;;5011864;28;19926;-67
2020/12/28 04:50:52;;;;;;;;;;;;;;;;;;5012217;28;19952;-66
2020/12/28 04:53:18;;;;;;;;;;;;;;;;;;5012977;28;19925;-67
2020/12/28 04:55:45;;;;;;;;;;;;;;;;;;5013111;28;20474;-67
2020/12/28 04:58:11;;;;;;;;;;;;;;;;;;5011856;28;19933;-66
2020/12/28 05:00:38;;;;;;;;;;;;;;;;;;5013791;28;19925;-67
2020/12/28 05:03:04;;;;;;;;;;;;;;;;;;5012239;28;19926;-66
2020/12/28 05:05:31;;;;;;;;;;;;;;;;;;5010332;28;19931;-67
2020/12/28 05:07:57;;;;;;;;;;;;;;;;;;5019895;28;19929;-67
2020/12/28 05:10:24;;;;;;;;;;;;;;;;;;5023762;28;19925;-67
2020/12/28 05:12:50;;;;;;;;;;;;;;;;;;5022485;28;19925;-67
2020/12/28 05:15:17;;;;;;;;;;;;;;;;;;5024420;28;19929;-67
2020/12/28 05:17:43;;;;;;;;;;;;;;;;;;5023189;28;19925;-67
2020/12/28 05:20:15;;;;;;;;;;;;;;;;;;5024098;28;19925;-68
2020/12/28 05:22:45;;;;;;;;;;;;;;;;;;5022883;28;19948;-68
2020/12/28 05:25:12;;;;;;;;;;;;;;;;;;5023907;28;19925;-69
2020/12/28 05:27:38;;;;;;;;;;;;;;;;;;5021197;28;20339;-68
2020/12/28 05:30:05;;;;;;;;;;;;;;;;;;5024318;28;20001;-68
2020/12/28 05:32:31;;;;;;;;;;;;;;;;;;5023566;28;20013;-68
2020/12/28 05:34:57;;;;;;;;;;;;;;;;;;5021661;28;19925;-68
2020/12/28 05:37:24;;;;;;;;;;;;;;;;;;5025107;28;20019;-68
2020/12/28 05:39:50;;;;;;;;;;;;;;;;;;5023537;28;19926;-68
2020/12/28 05:42:17;;;;;;;;;;;;;;;;;;5024702;28;19952;-67
2020/12/28 05:44:43;;;;;;;;;;;;;;;;;;5024791;28;19925;-68
2020/12/28 05:47:10;;;;;;;;;;;;;;;;;;5021738;28;19980;-68
2020/12/28 05:49:36;;;;;;;;;;;;;;;;;;5025207;28;19929;-68
2020/12/28 05:52:03;;;;;;;;;;;;;;;;;;5020613;28;19925;-68
2020/12/28 05:54:29;;;;;;;;;;;;;;;;;;5026152;28;20067;-67
2020/12/28 05:56:56;;;;;;;;;;;;;;;;;;5024449;28;19925;-68
2020/12/28 05:59:22;;;;;;;;;;;;;;;;;;5021373;28;20309;-68
2020/12/28 06:01:49;;;;;;;;;;;;;;;;;;5025575;28;19932;-68
2020/12/28 06:04:15;;;;;;;;;;;;;;;;;;5025715;28;19929;-68
2020/12/28 06:06:42;;;;;;;;;;;;;;;;;;5041389;28;19991;-68
2020/12/28 06:09:08;;;;;;;;;;;;;;;;;;5030252;28;19965;-68
2020/12/28 06:11:35;;;;;;;;;;;;;;;;;;5024896;28;19929;-68
2020/12/28 06:14:01;;;;;;;;;;;;;;;;;;5033309;28;19925;-68
2020/12/28 06:16:28;;;;;;;;;;;;;;;;;;5031851;28;19971;-68
2020/12/28 06:18:54;;;;;;;;;;;;;;;;;;5022451;28;20016;-67
2020/12/28 06:21:21;;;;;;;;;;;;;;;;;;5022008;28;19929;-68
2020/12/28 06:23:47;;;;;;;;;;;;;;;;;;5020675;28;19926;-68
2020/12/28 06:26:14;;;;;;;;;;;;;;;;;;5019581;28;19961;-68
2020/12/28 06:28:40;;;;;;;;;;;;;;;;;;5019544;28;19925;-68
2020/12/28 06:31:07;;;;;;;;;;;;;;;;;;5020216;28;19929;-69
2020/12/28 06:33:33;;;;;;;;;;;;;;;;;;5020827;28;19926;-69
2020/12/28 06:36:00;;;;;;;;;;;;;;;;;;5021287;28;20032;-69
2020/12/28 06:38:26;;;;;;;;;;;;;;;;;;5020785;28;20334;-69
2020/12/28 06:40:53;;;;;;;;;;;;;;;;;;5021680;28;19931;-68
2020/12/28 06:43:19;;;;;;;;;;;;;;;;;;5020207;28;19960;-68
2020/12/28 06:45:46;;;;;;;;;;;;;;;;;;5020551;28;20119;-68
2020/12/28 06:48:12;;;;;;;;;;;;;;;;;;5021211;28;19926;-68
2020/12/28 06:50:39;;;;;;;;;;;;;;;;;;5021216;28;19996;-68
2020/12/28 06:53:05;;;;;;;;;;;;;;;;;;5021717;28;19926;-68
2020/12/28 06:55:32;;;;;;;;;;;;;;;;;;5011229;28;20294;-68
2020/12/28 06:57:58;;;;;;;;;;;;;;;;;;5001486;28;19926;-69
2020/12/28 07:00:25;;;;;;;;;;;;;;;;;;5022163;28;19932;-69
2020/12/28 07:02:51;;;;;;;;;;;;;;;;;;5023260;28;19977;-69
2020/12/28 07:05:18;;;;;;;;;;;;;;;;;;5020205;28;19925;-69
2020/12/28 07:07:44;;;;;;;;;;;;;;;;;;5011524;28;19980;-69
2020/12/28 07:10:11;;;;;;;;;;;;;;;;;;5003275;28;20383;-69
2020/12/28 07:12:37;;;;;;;;;;;;;;;;;;5012157;28;19926;-69
2020/12/28 07:15:04;;;;;;;;;;;;;;;;;;5016123;28;19932;-69
2020/12/28 07:17:30;;;;;;;;;;;;;;;;;;5013971;28;19932;-68
2020/12/28 07:19:57;;;;;;;;;;;;;;;;;;5015105;28;19926;-69
2020/12/28 07:22:23;;;;;;;;;;;;;;;;;;5015020;28;20019;-69
2020/12/28 07:24:50;;;;;;;;;;;;;;;;;;5013426;28;19929;-69
2020/12/28 07:27:16;;;;;;;;;;;;;;;;;;5014101;28;20012;-69
2020/12/28 07:29:43;;;;;;;;;;;;;;;;;;5014173;28;19937;-68
2020/12/28 07:32:09;;;;;;;;;;;;;;;;;;5012649;28;19969;-69
2020/12/28 07:34:36;;;;;;;;;;;;;;;;;;5012395;28;19925;-68
2020/12/28 07:37:02;;;;;;;;;;;;;;;;;;5010518;28;19925;-69
2020/12/28 07:39:29;;;;;;;;;;;;;;;;;;5014031;28;19925;-68
2020/12/28 07:41:55;;;;;;;;;;;;;;;;;;5012732;28;19936;-67
2020/12/28 07:44:22;;;;;;;;;;;;;;;;;;5007908;28;19984;-67
2020/12/28 07:46:48;;;;;;;;;;;;;;;;;;5009860;28;19933;-67
2020/12/28 07:49:15;;;;;;;;;;;;;;;;;;5010172;28;19933;-68
2020/12/28 07:51:41;;;;;;;;;;;;;;;;;;5012874;28;19926;-68
2020/12/28 07:54:08;;;;;;;;;;;;;;;;;;5014093;28;20032;-67
2020/12/28 07:56:34;;;;;;;;;;;;;;;;;;5014407;28;19926;-68
2020/12/28 07:59:01;;;;;;;;;;;;;;;;;;5011084;28;20406;-67
2020/12/28 08:01:27;;;;;;;;;;;;;;;;;;5011065;28;20032;-67
2020/12/28 08:03:54;;;;;;;;;;;;;;;;;;5010870;28;20294;-67
2020/12/28 08:06:21;;;;;;;;;;;;;;;;;;5009754;28;20000;-68
2020/12/28 08:08:50;;;;;;;;;;;;;;;;;;5008881;28;19925;-66
2020/12/28 08:11:16;;;;;;;;;;;;;;;;;;5012085;28;19929;-67
2020/12/28 08:13:43;;;;;;;;;;;;;;;;;;5006408;28;19972;-68
2020/12/28 08:16:10;;;;;;;;;;;;;;;;;;5008966;28;20319;-68
2020/12/28 08:18:37;;;;;;;;;;;;;;;;;;5007982;28;19983;-68
2020/12/28 08:21:03;;;;;;;;;;;;;;;;;;5005595;28;19933;-67
2020/12/28 08:23:30;;;;;;;;;;;;;;;;;;5010364;28;19925;-67
2020/12/28 08:25:56;;;;;;;;;;;;;;;;;;5009262;28;19930;-67
2020/12/28 08:28:23;;;;;;;;;;;;;;;;;;5009226;28;19960;-68
2020/12/28 08:30:50;;;;;;;;;;;;;;;;;;5011541;28;20083;-68
2020/12/28 08:33:16;;;;;;;;;;;;;;;;;;5008218;28;19934;-68
2020/12/28 08:35:43;;;;;;;;;;;;;;;;;;5008264;28;19932;-68
2020/12/28 08:38:09;;;;;;;;;;;;;;;;;;5011490;28;20221;-66
2020/12/28 08:40:36;;;;;;;;;;;;;;;;;;5009642;28;19933;-66
2020/12/28 08:43:03;;;;;;;;;;;;;;;;;;5008946;28;20354;-65
2020/12/28 08:45:29;;;;;;;;;;;;;;;;;;5006830;28;19965;-66
2020/12/28 08:47:56;;;;;;;;;;;;;;;;;;5006882;28;20397;-68
2020/12/28 08:50:22;;;;;;;;;;;;;;;;;;5010122;28;19925;-67
2020/12/28 08:52:49;;;;;;;;;;;;;;;;;;5009395;28;20302;-67
2020/12/28 08:55:15;;;;;;;;;;;;;;;;;;5004651;28;19935;-66
2020/12/28 08:57:42;;;;;;;;;;;;;;;;;;5007371;28;20024;-67
2020/12/28 09:00:08;;;;;;;;;;;;;;;;;;5004790;28;20311;-65
2020/12/28 09:02:35;;;;;;;;;;;;;;;;;;5006238;28;20403;-68
2020/12/28 09:05:01;;;;;;;;;;;;;;;;;;5007519;28;19948;-68
2020/12/28 09:07:28;;;;;;;;;;;;;;;;;;5003569;28;20028;-69
2020/12/28 09:09:54;;;;;;;;;;;;;;;;;;5002469;28;19926;-66
2020/12/28 09:12:21;;;;;;;;;;;;;;;;;;5004770;28;20205;-66
2020/12/28 09:14:47;;;;;;;;;;;;;;;;;;5006100;28;20013;-70
2020/12/28 09:17:14;;;;;;;;;;;;;;;;;;5007192;28;20451;-68
2020/12/28 09:19:40;;;;;;;;;;;;;;;;;;5008176;28;19926;-67
2020/12/28 09:22:07;;;;;;;;;;;;;;;;;;5008552;28;19983;-68
2020/12/28 09:24:33;;;;;;;;;;;;;;;;;;5009038;28;19932;-69
2020/12/28 09:27:00;;;;;;;;;;;;;;;;;;5010732;28;19932;-67
2020/12/28 09:29:26;;;;;;;;;;;;;;;;;;5010544;28;19929;-68
2020/12/28 09:31:53;;;;;;;;;;;;;;;;;;5011387;28;19973;-66
2020/12/28 09:34:19;;;;;;;;;;;;;;;;;;5007313;28;19944;-67
2020/12/28 09:36:46;;;;;;;;;;;;;;;;;;5010653;28;20346;-66
2020/12/28 09:39:12;;;;;;;;;;;;;;;;;;5010717;28;19925;-68
2020/12/28 09:41:39;;;;;;;;;;;;;;;;;;5012403;28;20044;-68
2020/12/28 09:44:05;;;;;;;;;;;;;;;;;;5006611;28;19926;-69
2020/12/28 09:46:32;;;;;;;;;;;;;;;;;;5008521;28;19981;-68
2020/12/28 09:48:58;;;;;;;;;;;;;;;;;;5009253;28;19960;-68
2020/12/28 09:51:25;;;;;;;;;;;;;;;;;;5011310;28;20027;-68
2020/12/28 09:53:51;;;;;;;;;;;;;;;;;;5008655;28;19948;-67
2020/12/28 09:56:18;;;;;;;;;;;;;;;;;;5008587;28;19930;-68
2020/12/28 09:58:44;;;;;;;;;;;;;;;;;;5009733;28;19925;-66
2020/12/28 10:01:11;;;;;;;;;;;;;;;;;;5010404;28;20383;-66
2020/12/28 10:03:37;;;;;;;;;;;;;;;;;;5010858;28;19932;-67
2020/12/28 10:06:31;;;;;;;;;;;;;;;;;;5010695;28;19925;-65
2020/12/28 10:08:51;;;;;;;;;;;;;;;;;;5007211;28;19926;-68
2020/12/28 10:11:18;;;;;;;;;;;;;;;;;;5010376;28;19926;-67
2020/12/28 10:13:44;;;;;;;;;;;;;;;;;;5011483;28;19929;-67
2020/12/28 10:16:11;;;;;;;;;;;;;;;;;;5010199;28;20462;-67
2020/12/28 10:18:39;;;;;;;;;;;;;;;;;;5009621;28;19933;-66
2020/12/28 10:21:06;;;;;;;;;;;;;;;;;;5011656;28;20354;-66
2020/12/28 10:23:32;;;;;;;;;;;;;;;;;;5012916;28;20302;-67
2020/12/28 10:25:58;;;;;;;;;;;;;;;;;;5011311;28;19925;-69
2020/12/28 10:28:25;;;;;;;;;;;;;;;;;;5010603;28;19929;-68
2020/12/28 10:30:51;;;;;;;;;;;;;;;;;;5011332;28;19936;-67
2020/12/28 10:33:18;;;;;;;;;;;;;;;;;;5009581;28;19948;-66
2020/12/28 10:35:44;;;;;;;;;;;;;;;;;;5006792;28;20471;-67
2020/12/28 10:38:11;;;;;;;;;;;;;;;;;;5003002;28;20020;-67
2020/12/28 10:40:38;;;;;;;;;;;;;;;;;;5010255;28;20013;-67
2020/12/28 10:43:04;;;;;;;;;;;;;;;;;;5004563;28;19976;-67
2020/12/28 10:45:31;;;;;;;;;;;;;;;;;;5011143;28;20011;-65
2020/12/28 10:47:57;;;;;;;;;;;;;;;;;;5008370;28;19994;-67
2020/12/28 10:50:24;;;;;;;;;;;;;;;;;;5010477;28;19971;-69
2020/12/28 10:52:50;;;;;;;;;;;;;;;;;;5009847;28;20468;-67
2020/12/28 10:55:17;;;;;;;;;;;;;;;;;;5011270;28;19925;-68
2020/12/28 10:57:43;;;;;;;;;;;;;;;;;;5010837;28;20001;-68
2020/12/28 11:00:11;;;;;;;;;;;;;;;;;;5009121;28;21289;-68
2020/12/28 11:02:38;;;;;;;;;;;;;;;;;;5011980;28;19926;-66
2020/12/28 11:05:04;;;;;;;;;;;;;;;;;;5010407;28;20016;-69
2020/12/28 11:07:31;;;;;;;;;;;;;;;;;;5022842;23;19932;-63
2020/12/28 11:09:57;;;;;;;;;;;;;;;;;;5011545;28;20024;-62
2020/12/28 11:12:24;;;;;;;;;;;;;;;;;;5003835;28;19933;-61
2020/12/28 11:14:50;;;;;;;;;;;;;;;;;;5012044;28;19937;-62
2020/12/28 11:17:17;;;;;;;;;;;;;;;;;;5009204;28;19926;-62
2020/12/28 11:19:43;;;;;;;;;;;;;;;;;;5011547;28;19929;-61
2020/12/28 11:22:10;;;;;;;;;;;;;;;;;;5011726;28;19925;-62
2020/12/28 11:24:36;;;;;;;;;;;;;;;;;;5009173;28;20372;-62
2020/12/28 11:27:02;;;;;;;;;;;;;;;;;;5012211;28;19940;-61
2020/12/28 11:29:29;;;;;;;;;;;;;;;;;;5017735;28;19929;-62
2020/12/28 11:31:55;;;;;;;;;;;;;;;;;;5010722;28;19926;-64
2020/12/28 11:34:22;;;;;;;;;;;;;;;;;;5010919;28;19932;-61
2020/12/28 11:36:48;;;;;;;;;;;;;;;;;;5009900;28;19940;-64
2020/12/28 11:39:15;;;;;;;;;;;;;;;;;;5008003;28;20020;-62
2020/12/28 11:41:41;;;;;;;;;;;;;;;;;;5009410;28;19925;-62
2020/12/28 11:44:10;;;;;;;;;;;;;;;;;;5007944;28;19925;-62
2020/12/28 11:46:37;;;;;;;;;;;;;;;;;;5007636;28;19929;-63
2020/12/28 11:49:03;;;;;;;;;;;;;;;;;;5009733;28;20403;-62
2020/12/28 11:51:30;;;;;;;;;;;;;;;;;;5005776;28;20334;-63
2020/12/28 11:53:56;;;;;;;;;;;;;;;;;;5007635;28;20413;-62
2020/12/28 11:56:23;;;;;;;;;;;;;;;;;;5010918;28;19926;-63
2020/12/28 11:58:49;;;;;;;;;;;;;;;;;;5005970;28;19951;-62
2020/12/28 12:01:15;;;;;;;;;;;;;;;;;;5011469;28;19929;-62
2020/12/28 12:03:43;;;;;;;;;;;;;;;;;;5008369;28;20085;-61
2020/12/28 12:06:10;;;;;;;;;;;;;;;;;;5009581;28;20292;-62
2020/12/28 12:08:36;;;;;;;;;;;;;;;;;;5007684;28;20290;-62
2020/12/28 12:11:03;;;;;;;;;;;;;;;;;;5009796;28;19932;-62
2020/12/28 12:13:30;;;;;;;;;;;;;;;;;;5008858;28;19929;-64
2020/12/28 12:15:57;;;;;;;;;;;;;;;;;;5003052;28;20382;-60
2020/12/28 12:18:23;;;;;;;;;;;;;;;;;;5001171;28;20953;-60
2020/12/28 12:20:50;;;;;;;;;;;;;;;;;;5002964;28;19957;-58
2020/12/28 12:23:16;;;;;;;;;;;;;;;;;;5007495;28;19925;-63
2020/12/28 12:25:43;;;;;;;;;;;;;;;;;;5009274;28;19925;-63
2020/12/28 12:28:09;;;;;;;;;;;;;;;;;;5009316;28;19959;-66
2020/12/28 12:30:36;;;;;;;;;;;;;;;;;;5000223;28;19930;-63
2020/12/28 12:33:02;;;;;;;;;;;;;;;;;;5000316;28;21435;-63
2020/12/28 12:35:29;;;;;;;;;;;;;;;;;;5004373;28;19934;-62
2020/12/28 12:37:57;;;;;;;;;;;;;;;;;;5005617;28;20145;-64
2020/12/28 12:40:24;;;;;;;;;;;;;;;;;;5006120;28;19925;-62
2020/12/28 12:42:50;;;;;;;;;;;;;;;;;;5007503;28;19926;-63
2020/12/28 12:45:17;;;;;;;;;;;;;;;;;;5007224;28;19926;-63
2020/12/28 12:47:43;;;;;;;;;;;;;;;;;;4998965;28;19925;-62
2020/12/28 12:50:10;;;;;;;;;;;;;;;;;;5001377;28;20307;-65
2020/12/28 12:52:36;;;;;;;;;;;;;;;;;;5009133;28;20036;-63
2020/12/28 12:55:03;;;;;;;;;;;;;;;;;;5004588;28;19956;-62
2020/12/28 12:57:29;;;;;;;;;;;;;;;;;;5012371;28;20292;-62
2020/12/28 13:00:02;;;;;;;;;;;;;;;;;;5013006;28;20409;-63
2020/12/28 13:02:29;;;;;;;;;;;;;;;;;;5014102;28;19940;-64
2020/12/28 13:04:55;;;;;;;;;;;;;;;;;;5013446;28;19970;-62
2020/12/28 13:07:22;;;;;;;;;;;;;;;;;;5014390;28;20380;-64
2020/12/28 13:09:48;;;;;;;;;;;;;;;;;;5012534;28;19979;-62
2020/12/28 13:12:15;;;;;;;;;;;;;;;;;;5009394;28;19956;-62
2020/12/28 13:14:41;;;;;;;;;;;;;;;;;;5012320;28;19926;-62
2020/12/28 13:17:08;;;;;;;;;;;;;;;;;;5013732;28;20294;-63
2020/12/28 13:19:34;;;;;;;;;;;;;;;;;;5012723;28;19926;-62
2020/12/28 13:22:01;;;;;;;;;;;;;;;;;;5013532;28;19933;-65
2020/12/28 13:24:27;;;;;;;;;;;;;;;;;;5012920;28;19925;-63
2020/12/28 13:26:54;;;;;;;;;;;;;;;;;;5012589;28;19932;-63
2020/12/28 13:29:20;;;;;;;;;;;;;;;;;;5011054;28;20024;-63
2020/12/28 13:31:47;;;;;;;;;;;;;;;;;;5012876;28;19925;-63
2020/12/28 13:34:13;;;;;;;;;;;;;;;;;;5013408;28;19932;-64
2020/12/28 13:36:40;;;;;;;;;;;;;;;;;;5014380;28;20311;-64
2020/12/28 13:39:06;;;;;;;;;;;;;;;;;;5013644;28;19926;-62
2020/12/28 13:41:33;;;;;;;;;;;;;;;;;;5011550;28;19925;-62
2020/12/28 13:43:59;;;;;;;;;;;;;;;;;;5012796;28;19925;-63
2020/12/28 13:46:26;;;;;;;;;;;;;;;;;;5011222;28;19979;-61
2020/12/28 13:48:52;;;;;;;;;;;;;;;;;;5012123;28;20302;-60
2020/12/28 13:51:19;;;;;;;;;;;;;;;;;;5013710;28;20041;-63
2020/12/28 13:53:45;;;;;;;;;;;;;;;;;;5013489;28;19965;-61
2020/12/28 13:56:12;;;;;;;;;;;;;;;;;;5012127;28;19937;-62
2020/12/28 13:58:38;;;;;;;;;;;;;;;;;;5012108;28;19980;-63
2020/12/28 14:01:05;;;;;;;;;;;;;;;;;;5010069;28;19931;-63
2020/12/28 14:03:31;;;;;;;;;;;;;;;;;;5010529;28;20008;-62
2020/12/28 14:05:58;;;;;;;;;;;;;;;;;;5012404;28;20315;-62
2020/12/28 14:08:24;;;;;;;;;;;;;;;;;;5008492;28;20012;-64
2020/12/28 14:10:51;;;;;;;;;;;;;;;;;;5007413;28;19933;-65
2020/12/28 14:13:17;;;;;;;;;;;;;;;;;;5012098;28;19964;-63
2020/12/28 14:15:44;;;;;;;;;;;;;;;;;;5009235;28;21179;-63
2020/12/28 14:18:10;;;;;;;;;;;;;;;;;;5010674;28;19932;-62
2020/12/28 14:20:37;;;;;;;;;;;;;;;;;;5011433;28;19965;-62
2020/12/28 14:23:03;;;;;;;;;;;;;;;;;;5009813;28;19973;-62
2020/12/28 14:25:29;;;;;;;;;;;;;;;;;;5011631;28;20410;-60
2020/12/28 14:27:56;;;;;;;;;;;;;;;;;;5010830;28;19929;-62
2020/12/28 14:30:22;;;;;;;;;;;;;;;;;;5010633;28;19930;-62
2020/12/28 14:32:49;;;;;;;;;;;;;;;;;;5008406;28;20016;-62
2020/12/28 14:35:15;;;;;;;;;;;;;;;;;;5008200;28;19968;-62
2020/12/28 14:37:42;;;;;;;;;;;;;;;;;;5004626;28;20330;-63
2020/12/28 14:40:08;;;;;;;;;;;;;;;;;;5005738;28;19933;-63
2020/12/28 14:42:35;;;;;;;;;;;;;;;;;;5006264;28;20441;-61
2020/12/28 14:45:01;;;;;;;;;;;;;;;;;;5004831;28;19926;-61
2020/12/28 14:47:28;;;;;;;;;;;;;;;;;;5002487;28;19956;-62
2020/12/28 14:49:54;;;;;;;;;;;;;;;;;;5002907;28;19940;-62
2020/12/28 14:52:21;;;;;;;;;;;;;;;;;;5004195;28;20332;-62
2020/12/28 14:54:47;;;;;;;;;;;;;;;;;;5004902;28;19926;-62
2020/12/28 14:57:14;;;;;;;;;;;;;;;;;;5003368;28;19983;-62
2020/12/28 14:59:40;;;;;;;;;;;;;;;;;;5006018;28;19930;-62
2020/12/28 15:02:09;;;;;;;;;;;;;;;;;;5010253;28;20404;-62
2020/12/28 15:04:35;;;;;;;;;;;;;;;;;;5009236;28;19930;-63
2020/12/28 15:07:02;;;;;;;;;;;;;;;;;;5006248;28;20395;-62
2020/12/28 15:09:28;;;;;;;;;;;;;;;;;;5008222;28;19983;-62
2020/12/28 15:11:55;;;;;;;;;;;;;;;;;;5009644;28;19956;-60
2020/12/28 15:14:21;;;;;;;;;;;;;;;;;;5009901;28;19925;-67
2020/12/28 15:16:48;;;;;;;;;;;;;;;;;;5006182;28;20346;-62
2020/12/28 15:19:14;;;;;;;;;;;;;;;;;;5007225;28;19952;-62
2020/12/28 15:21:41;;;;;;;;;;;;;;;;;;5009846;28;20125;-62
2020/12/28 15:24:07;;;;;;;;;;;;;;;;;;5010784;28;20355;-62
2020/12/28 15:26:34;;;;;;;;;;;;;;;;;;5011864;28;19954;-64
2020/12/28 15:29:00;;;;;;;;;;;;;;;;;;5006802;28;20412;-62
2020/12/28 15:31:27;;;;;;;;;;;;;;;;;;5005365;28;19932;-62
2020/12/28 15:33:53;;;;;;;;;;;;;;;;;;5005166;28;19925;-62
2020/12/28 15:36:20;;;;;;;;;;;;;;;;;;5009157;28;20040;-61
2020/12/28 15:38:46;;;;;;;;;;;;;;;;;;5010421;28;19930;-62
2020/12/28 15:41:12;;;;;;;;;;;;;;;;;;5009405;28;20315;-62
2020/12/28 15:43:39;;;;;;;;;;;;;;;;;;5009346;28;19925;-63
2020/12/28 15:46:07;;;;;;;;;;;;;;;;;;5006890;28;19937;-62
2020/12/28 15:48:34;;;;;;;;;;;;;;;;;;5010499;28;19926;-62
2020/12/28 15:51:00;;;;;;;;;;;;;;;;;;5008542;28;19932;-61
2020/12/28 15:53:27;;;;;;;;;;;;;;;;;;5004300;28;20011;-63
2020/12/28 15:55:53;;;;;;;;;;;;;;;;;;5010873;28;19925;-63
2020/12/28 15:58:20;;;;;;;;;;;;;;;;;;5006127;28;19949;-63
2020/12/28 16:00:46;;;;;;;;;;;;;;;;;;5009698;28;19925;-63
2020/12/28 16:03:13;;;;;;;;;;;;;;;;;;5007947;28;19932;-63
2020/12/28 16:05:39;;;;;;;;;;;;;;;;;;5008393;28;20321;-64
2020/12/28 16:08:06;;;;;;;;;;;;;;;;;;5007385;28;19926;-63
2020/12/28 16:10:32;;;;;;;;;;;;;;;;;;5003161;28;20027;-63
2020/12/28 16:12:59;;;;;;;;;;;;;;;;;;5001277;28;19925;-63
2020/12/28 16:15:25;;;;;;;;;;;;;;;;;;5004153;28;19925;-63
2020/12/28 16:17:52;;;;;;;;;;;;;;;;;;5006317;28;19932;-60
2020/12/28 16:20:18;;;;;;;;;;;;;;;;;;5003736;28;19930;-61
2020/12/28 16:22:45;;;;;;;;;;;;;;;;;;5004403;28;19934;-63
2020/12/28 16:25:11;;;;;;;;;;;;;;;;;;5002597;28;19929;-60
2020/12/28 16:27:38;;;;;;;;;;;;;;;;;;5002994;28;20307;-63
2020/12/28 16:30:04;;;;;;;;;;;;;;;;;;5004959;28;19973;-62
2020/12/28 16:32:31;;;;;;;;;;;;;;;;;;5006906;28;19925;-56
2020/12/28 16:34:57;;;;;;;;;;;;;;;;;;5010697;28;19926;-64
2020/12/28 16:37:26;;;;;;;;;;;;;;;;;;5006343;28;19930;-63
2020/12/28 16:39:52;;;;;;;;;;;;;;;;;;5012439;28;20003;-64